createdAt,value
2018-01-24T00:00:19.286Z,4.00
2018-01-24T00:01:19.305Z,4.00
2018-01-24T00:02:19.326Z,4.00
2018-01-24T00:03:19.330Z,4.00
2018-01-24T00:04:19.687Z,4.00
2018-01-24T00:05:19.356Z,4.00
2018-01-24T00:06:19.371Z,4.00
2018-01-24T00:07:19.390Z,4.00
2018-01-24T00:08:19.406Z,4.00
2018-01-24T00:09:19.411Z,4.00
2018-01-24T00:10:19.427Z,4.00
2018-01-24T00:11:19.440Z,4.00
2018-01-24T00:12:19.603Z,4.00
2018-01-24T00:13:19.467Z,4.00
2018-01-24T00:14:19.483Z,4.00
2018-01-24T00:15:19.648Z,4.00
2018-01-24T00:16:19.510Z,4.00
2018-01-24T00:17:19.524Z,4.00
2018-01-24T00:18:19.538Z,4.00
2018-01-24T00:19:19.551Z,4.00
2018-01-24T00:20:19.566Z,4.00
2018-01-24T00:21:19.580Z,4.00
2018-01-24T00:22:19.598Z,4.00
2018-01-24T00:23:19.765Z,4.00
2018-01-24T00:24:19.622Z,4.00
2018-01-24T00:25:19.636Z,4.00
2018-01-24T00:26:19.652Z,4.00
2018-01-24T00:27:19.664Z,4.00
2018-01-24T00:28:19.677Z,4.00
2018-01-24T00:29:19.693Z,4.00
2018-01-24T00:30:19.705Z,4.00
2018-01-24T00:31:19.721Z,4.00
2018-01-24T00:32:19.735Z,4.00
2018-01-24T00:33:19.802Z,4.00
2018-01-24T00:34:19.824Z,4.00
2018-01-24T00:35:19.778Z,4.00
2018-01-24T00:36:19.940Z,4.00
2018-01-24T00:37:19.805Z,4.00
2018-01-24T00:38:19.820Z,4.00
2018-01-24T00:39:19.832Z,4.00
2018-01-24T00:40:19.850Z,4.00
2018-01-24T00:41:19.862Z,4.00
2018-01-24T00:42:19.874Z,4.00
2018-01-24T00:43:19.888Z,4.00
2018-01-24T00:44:19.904Z,4.00
2018-01-24T00:45:19.917Z,4.00
2018-01-24T00:46:19.935Z,4.00
2018-01-24T00:47:19.950Z,4.00
2018-01-24T00:48:19.959Z,4.00
2018-01-24T00:49:19.972Z,4.00
2018-01-24T00:50:19.987Z,4.00
2018-01-24T00:51:20.000Z,4.00
2018-01-24T00:52:20.015Z,4.00
2018-01-24T00:53:20.029Z,4.00
2018-01-24T00:54:20.044Z,4.00
2018-01-24T00:55:20.058Z,4.00
2018-01-24T00:56:20.223Z,4.00
2018-01-24T00:57:20.084Z,4.00
2018-01-24T00:58:20.098Z,4.00
2018-01-24T00:59:20.118Z,4.00
2018-01-24T01:00:20.128Z,4.00
2018-01-24T01:01:20.141Z,4.00
2018-01-24T01:02:20.156Z,4.00
2018-01-24T01:03:20.169Z,4.00
2018-01-24T01:04:20.189Z,4.00
2018-01-24T01:05:20.197Z,4.00
2018-01-24T01:06:20.212Z,4.00
2018-01-24T01:07:20.325Z,4.00
2018-01-24T01:08:20.264Z,4.00
2018-01-24T01:09:20.253Z,4.00
2018-01-24T01:10:20.267Z,4.00
2018-01-24T01:11:20.282Z,4.00
2018-01-24T01:12:20.296Z,4.00
2018-01-24T01:13:20.310Z,4.00
2018-01-24T01:14:20.324Z,4.00
2018-01-24T01:15:20.344Z,4.00
2018-01-24T01:16:20.354Z,4.00
2018-01-24T01:17:20.373Z,4.00
2018-01-24T01:18:20.381Z,4.00
2018-01-24T01:19:20.398Z,4.00
2018-01-24T01:20:20.410Z,4.00
2018-01-24T01:21:20.423Z,4.00
2018-01-24T01:22:20.439Z,4.00
2018-01-24T01:23:20.454Z,4.00
2018-01-24T01:24:20.466Z,4.00
2018-01-24T01:25:20.485Z,4.00
2018-01-24T01:26:20.493Z,4.00
2018-01-24T01:27:20.513Z,4.00
2018-01-24T01:28:20.524Z,4.00
2018-01-24T01:29:20.541Z,4.00
2018-01-24T01:30:20.552Z,4.00
2018-01-24T01:31:20.566Z,4.00
2018-01-24T01:32:20.582Z,4.00
2018-01-24T01:33:20.620Z,4.00
2018-01-24T01:34:20.610Z,4.00
2018-01-24T01:35:20.624Z,4.00
2018-01-24T01:36:20.636Z,4.00
2018-01-24T01:37:20.656Z,4.00
2018-01-24T01:38:20.667Z,4.00
2018-01-24T01:39:20.681Z,4.00
2018-01-24T01:40:20.846Z,4.00
2018-01-24T01:41:20.913Z,4.00
2018-01-24T01:42:20.797Z,4.00
2018-01-24T01:43:20.753Z,4.00
2018-01-24T01:44:20.753Z,4.00
2018-01-24T01:45:20.766Z,4.00
2018-01-24T01:46:20.783Z,4.00
2018-01-24T01:47:20.796Z,4.00
2018-01-24T01:48:20.813Z,4.00
2018-01-24T01:49:20.824Z,4.00
2018-01-24T01:50:20.838Z,4.00
2018-01-24T01:51:20.853Z,4.00
2018-01-24T01:52:20.867Z,4.00
2018-01-24T01:53:20.880Z,4.00
2018-01-24T01:54:20.897Z,4.00
2018-01-24T01:55:20.911Z,4.00
2018-01-24T01:56:21.023Z,4.00
2018-01-24T01:57:20.944Z,4.00
2018-01-24T01:58:20.954Z,4.00
2018-01-24T01:59:20.968Z,4.00
2018-01-24T02:00:20.982Z,4.00
2018-01-24T02:01:21.001Z,4.00
2018-01-24T02:02:21.013Z,4.00
2018-01-24T02:03:21.025Z,4.00
2018-01-24T02:04:21.040Z,4.00
2018-01-24T02:05:21.055Z,4.00
2018-01-24T02:06:21.069Z,4.00
2018-01-24T02:07:21.087Z,4.00
2018-01-24T02:08:21.103Z,4.00
2018-01-24T02:09:21.119Z,4.00
2018-01-24T02:10:21.128Z,4.00
2018-01-24T02:11:21.141Z,4.00
2018-01-24T02:12:21.156Z,4.00
2018-01-24T02:13:21.171Z,4.00
2018-01-24T02:14:21.186Z,4.00
2018-01-24T02:15:21.297Z,4.00
2018-01-24T02:16:21.215Z,4.00
2018-01-24T02:17:21.229Z,4.00
2018-01-24T02:18:21.253Z,4.00
2018-01-24T02:19:21.257Z,4.00
2018-01-24T02:20:21.425Z,4.00
2018-01-24T02:21:21.288Z,4.00
2018-01-24T02:22:21.302Z,4.00
2018-01-24T02:23:21.317Z,4.00
2018-01-24T02:24:21.334Z,4.00
2018-01-24T02:25:21.346Z,4.00
2018-01-24T02:26:21.363Z,4.00
2018-01-24T02:27:21.377Z,4.00
2018-01-24T02:28:21.392Z,4.00
2018-01-24T02:29:21.403Z,4.00
2018-01-24T02:30:21.568Z,4.00
2018-01-24T02:31:21.445Z,4.00
2018-01-24T02:32:21.450Z,4.00
2018-01-24T02:33:21.464Z,4.00
2018-01-24T02:34:21.630Z,4.00
2018-01-24T02:35:21.498Z,4.00
2018-01-24T02:36:21.518Z,4.00
2018-01-24T02:38:21.537Z,4.00
2018-01-24T02:39:21.551Z,4.00
2018-01-24T02:40:21.571Z,4.00
2018-01-24T02:41:21.582Z,4.00
2018-01-24T02:42:21.596Z,4.00
2018-01-24T02:43:21.611Z,4.00
2018-01-24T02:44:21.626Z,4.00
2018-01-24T02:45:21.791Z,4.00
2018-01-24T02:46:22.099Z,4.00
2018-01-24T02:48:22.647Z,4.00
2018-01-24T02:50:22.524Z,4.00
2018-01-24T02:51:22.916Z,4.00
2018-01-24T02:52:21.745Z,4.00
2018-01-24T02:53:21.756Z,4.00
2018-01-24T02:54:21.773Z,4.00
2018-01-24T02:55:21.818Z,4.00
2018-01-24T02:56:21.802Z,4.00
2018-01-24T02:57:21.817Z,4.00
2018-01-24T02:58:21.867Z,4.00
2018-01-24T02:59:21.951Z,4.00
2018-01-24T03:00:21.861Z,4.00
2018-01-24T03:01:21.877Z,4.00
2018-01-24T03:02:21.898Z,4.00
2018-01-24T03:03:21.908Z,4.00
2018-01-24T03:04:21.921Z,4.00
2018-01-24T03:05:21.936Z,4.00
2018-01-24T03:06:21.955Z,4.00
2018-01-24T03:07:21.971Z,4.00
2018-01-24T03:08:21.979Z,4.00
2018-01-24T03:09:21.997Z,4.00
2018-01-24T03:10:22.010Z,4.00
2018-01-24T03:11:22.024Z,4.00
2018-01-24T03:12:22.042Z,4.00
2018-01-24T03:13:22.203Z,4.00
2018-01-24T03:14:22.071Z,4.00
2018-01-24T03:15:22.485Z,4.00
2018-01-24T03:16:22.112Z,4.00
2018-01-24T03:17:22.118Z,4.00
2018-01-24T03:18:22.127Z,4.00
2018-01-24T03:19:22.142Z,4.00
2018-01-24T03:20:22.157Z,4.00
2018-01-24T03:21:22.433Z,4.00
2018-01-24T03:24:22.252Z,4.00
2018-01-24T03:25:22.235Z,4.00
2018-01-24T03:26:22.246Z,4.00
2018-01-24T03:27:22.260Z,4.00
2018-01-24T03:28:22.279Z,4.00
2018-01-24T03:29:22.292Z,4.00
2018-01-24T03:30:22.307Z,4.00
2018-01-24T03:31:22.329Z,4.00
2018-01-24T03:32:22.372Z,4.00
2018-01-24T03:33:22.357Z,4.00
2018-01-24T03:34:22.368Z,4.00
2018-01-24T03:35:22.381Z,4.00
2018-01-24T03:36:22.400Z,4.00
2018-01-24T03:37:22.408Z,4.00
2018-01-24T03:38:22.424Z,4.00
2018-01-24T03:39:22.440Z,4.00
2018-01-24T03:40:22.454Z,4.00
2018-01-24T03:41:22.870Z,4.00
2018-01-24T03:42:22.484Z,4.00
2018-01-24T03:43:22.649Z,4.00
2018-01-24T03:44:22.515Z,4.00
2018-01-24T03:45:22.530Z,4.00
2018-01-24T03:46:22.542Z,4.00
2018-01-24T03:47:22.561Z,4.00
2018-01-24T03:48:22.583Z,4.00
2018-01-24T03:49:22.988Z,4.00
2018-01-24T03:50:22.610Z,4.00
2018-01-24T03:52:22.983Z,4.00
2018-01-24T03:53:22.912Z,4.00
2018-01-24T03:56:23.307Z,4.00
2018-01-24T03:57:22.714Z,4.00
2018-01-24T03:58:22.721Z,4.00
2018-01-24T03:59:22.737Z,4.00
2018-01-24T04:00:22.757Z,4.00
2018-01-24T04:01:22.766Z,4.00
2018-01-24T04:02:22.781Z,4.00
2018-01-24T04:03:22.912Z,4.00
2018-01-24T04:04:22.810Z,4.00
2018-01-24T04:05:22.826Z,4.00
2018-01-24T04:06:22.843Z,4.00
2018-01-24T04:07:22.861Z,4.00
2018-01-24T04:08:22.873Z,4.00
2018-01-24T04:09:22.889Z,4.00
2018-01-24T04:10:22.901Z,4.00
2018-01-24T04:11:22.916Z,4.00
2018-01-24T04:12:22.933Z,4.00
2018-01-24T04:13:22.949Z,4.00
2018-01-24T04:14:22.964Z,4.00
2018-01-24T04:15:22.978Z,4.00
2018-01-24T04:16:22.991Z,4.00
2018-01-24T04:17:23.007Z,4.00
2018-01-24T04:18:23.024Z,4.00
2018-01-24T04:19:23.044Z,4.00
2018-01-24T04:20:23.056Z,4.00
2018-01-24T04:21:23.071Z,4.00
2018-01-24T04:22:23.085Z,4.00
2018-01-24T04:23:23.098Z,4.00
2018-01-24T04:24:23.120Z,4.00
2018-01-24T04:25:23.162Z,4.00
2018-01-24T04:26:23.143Z,4.00
2018-01-24T04:27:23.180Z,4.00
2018-01-24T04:28:23.526Z,4.00
2018-01-24T04:29:23.568Z,4.00
2018-01-24T04:30:23.218Z,4.00
2018-01-24T04:31:23.221Z,4.00
2018-01-24T04:32:23.236Z,4.00
2018-01-24T04:33:23.249Z,4.00
2018-01-24T04:34:23.263Z,4.00
2018-01-24T04:35:23.278Z,4.00
2018-01-24T04:36:23.301Z,4.00
2018-01-24T04:37:23.321Z,4.00
2018-01-24T04:38:23.324Z,4.00
2018-01-24T04:39:23.340Z,4.00
2018-01-24T04:40:23.353Z,4.00
2018-01-24T04:41:23.521Z,4.00
2018-01-24T04:42:23.386Z,4.00
2018-01-24T04:43:23.403Z,4.00
2018-01-24T04:44:23.418Z,4.00
2018-01-24T04:45:23.428Z,4.00
2018-01-24T04:46:23.444Z,4.00
2018-01-24T04:47:23.458Z,4.00
2018-01-24T04:48:23.474Z,4.00
2018-01-24T04:49:23.487Z,4.00
2018-01-24T04:50:23.657Z,4.00
2018-01-24T04:51:23.523Z,4.00
2018-01-24T04:52:23.546Z,4.00
2018-01-24T04:53:23.549Z,4.00
2018-01-24T04:54:23.590Z,4.00
2018-01-24T04:55:23.982Z,4.00
2018-01-24T04:56:23.606Z,4.00
2018-01-24T04:57:23.613Z,4.00
2018-01-24T04:59:24.055Z,4.00
2018-01-24T05:00:23.655Z,4.00
2018-01-24T05:01:23.672Z,4.00
2018-01-24T05:02:23.838Z,4.00
2018-01-24T05:03:23.702Z,4.00
2018-01-24T05:04:23.715Z,4.00
2018-01-24T05:05:23.730Z,4.00
2018-01-24T05:06:23.759Z,4.00
2018-01-24T05:07:23.771Z,4.00
2018-01-24T05:08:23.775Z,4.00
2018-01-24T05:09:23.790Z,4.00
2018-01-24T05:10:23.806Z,4.00
2018-01-24T05:11:23.819Z,4.00
2018-01-24T05:12:23.835Z,4.00
2018-01-24T05:13:23.851Z,4.00
2018-01-24T05:14:23.872Z,4.00
2018-01-24T05:15:23.885Z,4.00
2018-01-24T05:16:23.898Z,4.00
2018-01-24T05:17:23.909Z,4.00
2018-01-24T05:18:23.926Z,4.00
2018-01-24T05:19:23.941Z,4.00
2018-01-24T05:20:23.956Z,4.00
2018-01-24T05:21:23.970Z,4.00
2018-01-24T05:22:24.136Z,4.00
2018-01-24T05:23:24.001Z,4.00
2018-01-24T05:24:24.015Z,4.00
2018-01-24T05:25:24.028Z,4.00
2018-01-24T05:26:24.196Z,4.00
2018-01-24T05:27:24.064Z,4.00
2018-01-24T05:28:24.094Z,4.00
2018-01-24T05:30:24.105Z,4.00
2018-01-24T05:31:24.160Z,4.00
2018-01-24T05:32:24.492Z,4.00
2018-01-24T05:33:24.346Z,4.00
2018-01-24T05:34:24.170Z,4.00
2018-01-24T05:35:24.202Z,4.00
2018-01-24T05:36:24.194Z,4.00
2018-01-24T05:37:24.329Z,4.00
2018-01-24T05:38:25.024Z,4.00
2018-01-24T05:39:24.773Z,4.00
2018-01-24T05:42:24.283Z,4.00
2018-01-24T05:43:24.299Z,4.00
2018-01-24T05:44:24.313Z,4.00
2018-01-24T05:45:24.328Z,4.00
2018-01-24T05:46:24.347Z,4.00
2018-01-24T05:47:24.360Z,4.00
2018-01-24T05:48:24.373Z,4.00
2018-01-24T05:49:24.392Z,4.00
2018-01-24T05:51:24.785Z,8.00
2018-01-24T05:52:24.436Z,8.00
2018-01-24T05:53:24.450Z,8.00
2018-01-24T05:54:24.477Z,8.00
2018-01-24T05:55:24.906Z,8.00
2018-01-24T05:56:24.519Z,8.00
2018-01-24T05:57:24.540Z,8.00
2018-01-24T05:58:24.528Z,8.00
2018-01-24T05:59:24.540Z,8.00
2018-01-24T06:00:25.218Z,8.00
2018-01-24T06:01:27.956Z,8.00
2018-01-24T06:02:24.787Z,4.00
2018-01-24T06:03:25.151Z,8.00
2018-01-24T06:04:25.226Z,8.00
2018-01-24T06:05:24.732Z,8.00
2018-01-24T06:06:25.050Z,8.00
2018-01-24T06:07:24.667Z,8.00
2018-01-24T06:08:24.731Z,4.00
2018-01-24T06:09:24.840Z,8.00
2018-01-24T06:10:25.613Z,4.00
2018-01-24T06:11:24.718Z,4.00
2018-01-24T06:12:24.906Z,4.00
2018-01-24T06:13:24.745Z,4.00
2018-01-24T06:14:24.763Z,4.00
2018-01-24T06:15:24.776Z,4.00
2018-01-24T06:16:24.815Z,4.00
2018-01-24T06:17:24.815Z,4.00
2018-01-24T06:18:24.953Z,4.00
2018-01-24T06:19:24.835Z,4.00
2018-01-24T06:20:24.851Z,4.00
2018-01-24T06:21:24.898Z,4.00
2018-01-24T06:22:24.885Z,4.00
2018-01-24T06:23:24.898Z,4.00
2018-01-24T06:24:24.919Z,4.00
2018-01-24T06:25:24.932Z,4.00
2018-01-24T06:26:24.943Z,4.00
2018-01-24T06:27:25.111Z,4.00
2018-01-24T06:28:24.974Z,4.00
2018-01-24T06:29:24.989Z,4.00
2018-01-24T06:30:25.015Z,4.00
2018-01-24T06:31:25.017Z,4.00
2018-01-24T06:32:25.045Z,4.00
2018-01-24T06:33:25.046Z,4.00
2018-01-24T06:34:25.135Z,4.00
2018-01-24T06:36:25.374Z,4.00
2018-01-24T06:38:25.665Z,4.00
2018-01-24T06:39:25.234Z,4.00
2018-01-24T06:40:25.173Z,4.00
2018-01-24T06:41:25.629Z,4.00
2018-01-24T06:42:25.185Z,4.00
2018-01-24T06:43:25.201Z,4.00
2018-01-24T06:44:25.215Z,4.00
2018-01-24T06:45:25.226Z,4.00
2018-01-24T06:46:25.300Z,4.00
2018-01-24T06:47:25.252Z,4.00
2018-01-24T06:48:25.273Z,4.00
2018-01-24T06:49:25.304Z,4.00
2018-01-24T06:50:25.299Z,4.00
2018-01-24T06:51:25.315Z,4.00
2018-01-24T06:52:25.330Z,8.00
2018-01-24T06:53:25.411Z,8.00
2018-01-24T06:54:25.511Z,8.00
2018-01-24T06:55:25.379Z,8.00
2018-01-24T06:56:25.444Z,8.00
2018-01-24T06:57:25.425Z,8.00
2018-01-24T06:58:25.419Z,12.00
2018-01-24T06:59:25.441Z,8.00
2018-01-24T07:00:25.651Z,8.00
2018-01-24T07:01:25.494Z,12.00
2018-01-24T07:02:25.479Z,8.00
2018-01-24T07:03:25.492Z,12.00
2018-01-24T07:04:25.524Z,16.00
2018-01-24T07:05:25.523Z,12.00
2018-01-24T07:06:25.780Z,12.00
2018-01-24T07:07:25.607Z,12.00
2018-01-24T07:08:25.742Z,12.00
2018-01-24T07:09:25.738Z,12.00
2018-01-24T07:10:26.018Z,16.00
2018-01-24T07:11:25.716Z,16.00
2018-01-24T07:12:25.998Z,20.00
2018-01-24T07:13:25.675Z,20.00
2018-01-24T07:14:25.718Z,24.00
2018-01-24T07:15:25.674Z,24.00
2018-01-24T07:16:25.696Z,28.00
2018-01-24T07:17:25.844Z,28.00
2018-01-24T07:18:25.721Z,28.00
2018-01-24T07:19:25.736Z,32.00
2018-01-24T07:20:25.758Z,40.00
2018-01-24T07:21:25.765Z,44.00
2018-01-24T07:22:25.855Z,48.00
2018-01-24T07:23:25.858Z,56.00
2018-01-24T07:24:25.898Z,56.00
2018-01-24T07:25:25.820Z,56.00
2018-01-24T07:26:25.833Z,56.00
2018-01-24T07:27:25.863Z,56.00
2018-01-24T07:28:25.868Z,60.00
2018-01-24T07:29:25.885Z,60.00
2018-01-24T07:30:25.918Z,56.00
2018-01-24T07:31:25.918Z,52.00
2018-01-24T07:32:25.925Z,60.00
2018-01-24T07:33:25.939Z,76.00
2018-01-24T07:34:25.962Z,84.00
2018-01-24T07:35:25.969Z,80.00
2018-01-24T07:36:25.987Z,80.00
2018-01-24T07:37:26.005Z,76.00
2018-01-24T07:38:26.036Z,84.00
2018-01-24T07:39:26.032Z,104.00
2018-01-24T07:40:26.046Z,100.00
2018-01-24T07:41:26.078Z,96.00
2018-01-24T07:42:26.226Z,100.00
2018-01-24T07:43:26.295Z,112.00
2018-01-24T07:44:26.666Z,140.00
2018-01-24T07:45:27.388Z,152.00
2018-01-24T07:46:26.859Z,176.00
2018-01-24T07:47:26.191Z,188.00
2018-01-24T07:48:26.343Z,200.00
2018-01-24T07:49:26.181Z,208.00
2018-01-24T07:50:26.198Z,220.00
2018-01-24T07:51:26.216Z,240.00
2018-01-24T07:52:26.389Z,240.00
2018-01-24T07:53:26.250Z,216.00
2018-01-24T07:54:26.256Z,216.00
2018-01-24T07:55:26.291Z,192.00
2018-01-24T07:56:26.290Z,204.00
2018-01-24T07:57:26.303Z,208.00
2018-01-24T07:58:26.333Z,200.00
2018-01-24T07:59:26.337Z,212.00
2018-01-24T08:00:26.379Z,256.00
2018-01-24T08:01:26.370Z,256.00
2018-01-24T08:02:26.384Z,220.00
2018-01-24T08:03:26.395Z,224.00
2018-01-24T08:04:26.420Z,256.00
2018-01-24T08:05:26.433Z,264.00
2018-01-24T08:06:26.863Z,232.00
2018-01-24T08:07:26.918Z,256.00
2018-01-24T08:08:27.263Z,272.00
2018-01-24T08:09:27.062Z,308.00
2018-01-24T08:10:26.501Z,324.00
2018-01-24T08:11:26.518Z,380.00
2018-01-24T08:12:26.531Z,364.00
2018-01-24T08:13:26.554Z,448.00
2018-01-24T08:14:26.703Z,436.00
2018-01-24T08:16:27.010Z,488.00
2018-01-24T08:17:26.707Z,492.00
2018-01-24T08:20:27.873Z,440.00
2018-01-24T08:21:26.699Z,496.00
2018-01-24T08:22:26.686Z,532.00
2018-01-24T08:23:27.587Z,460.00
2018-01-24T08:24:26.714Z,404.00
2018-01-24T08:25:26.733Z,384.00
2018-01-24T08:26:26.752Z,424.00
2018-01-24T08:27:26.760Z,484.00
2018-01-24T08:28:26.775Z,456.00
2018-01-24T08:29:26.791Z,428.00
2018-01-24T08:30:26.807Z,572.00
2018-01-24T08:31:26.997Z,776.00
2018-01-24T08:32:26.847Z,768.00
2018-01-24T08:33:26.855Z,780.00
2018-01-24T08:34:26.872Z,732.00
2018-01-24T08:35:26.892Z,724.00
2018-01-24T08:36:26.898Z,676.00
2018-01-24T08:37:26.920Z,624.00
2018-01-24T08:38:27.008Z,568.00
2018-01-24T08:39:26.946Z,448.00
2018-01-24T08:40:26.973Z,500.00
2018-01-24T08:41:26.976Z,528.00
2018-01-24T08:42:26.993Z,556.00
2018-01-24T08:43:27.021Z,552.00
2018-01-24T08:44:27.133Z,468.00
2018-01-24T08:47:27.216Z,452.00
2018-01-24T08:48:28.299Z,508.00
2018-01-24T08:49:27.099Z,784.00
2018-01-24T08:50:27.119Z,968.00
2018-01-24T08:51:27.185Z,984.00
2018-01-24T08:52:27.148Z,992.00
2018-01-24T08:53:27.169Z,1136.00
2018-01-24T08:54:27.191Z,1244.00
2018-01-24T08:55:27.202Z,1204.00
2018-01-24T08:56:27.211Z,1272.00
2018-01-24T08:57:27.268Z,1320.00
2018-01-24T08:58:27.237Z,1388.00
2018-01-24T08:59:27.254Z,1388.00
2018-01-24T09:00:27.273Z,1564.00
2018-01-24T09:01:27.297Z,1792.00
2018-01-24T09:02:27.302Z,1860.00
2018-01-24T09:03:27.324Z,1848.00
2018-01-24T09:04:27.332Z,1904.00
2018-01-24T09:05:27.346Z,1904.00
2018-01-24T09:06:27.365Z,1812.00
2018-01-24T09:07:27.388Z,1800.00
2018-01-24T09:08:27.397Z,1840.00
2018-01-24T09:09:27.415Z,1784.00
2018-01-24T09:10:27.627Z,1636.00
2018-01-24T09:11:27.462Z,1636.00
2018-01-24T09:12:28.074Z,1588.00
2018-01-24T09:13:27.465Z,1488.00
2018-01-24T09:14:27.494Z,1508.00
2018-01-24T09:15:27.497Z,1556.00
2018-01-24T09:16:27.512Z,1720.00
2018-01-24T09:17:27.644Z,1748.00
2018-01-24T09:18:27.544Z,1768.00
2018-01-24T09:19:27.568Z,1720.00
2018-01-24T09:21:28.053Z,1600.00
2018-01-24T09:22:27.736Z,1536.00
2018-01-24T09:23:28.390Z,1500.00
2018-01-24T09:24:27.657Z,1464.00
2018-01-24T09:25:27.674Z,1448.00
2018-01-24T09:26:27.673Z,1452.00
2018-01-24T09:27:27.703Z,1476.00
2018-01-24T09:28:27.705Z,1548.00
2018-01-24T09:29:27.721Z,1688.00
2018-01-24T09:30:27.733Z,1640.00
2018-01-24T09:31:27.748Z,1564.00
2018-01-24T09:32:27.763Z,1708.00
2018-01-24T09:33:27.781Z,2024.00
2018-01-24T09:34:27.795Z,2260.00
2018-01-24T09:35:27.855Z,2088.00
2018-01-24T09:36:27.825Z,1988.00
2018-01-24T09:37:27.842Z,1720.00
2018-01-24T09:38:27.888Z,1804.00
2018-01-24T09:40:27.905Z,1584.00
2018-01-24T09:41:28.717Z,1668.00
2018-01-24T09:42:27.920Z,1820.00
2018-01-24T09:43:27.937Z,1524.00
2018-01-24T09:44:27.959Z,1032.00
2018-01-24T09:45:28.103Z,904.00
2018-01-24T09:46:28.439Z,1064.00
2018-01-24T09:47:28.196Z,1412.00
2018-01-24T09:48:28.319Z,1340.00
2018-01-24T09:49:28.046Z,1196.00
2018-01-24T09:50:28.044Z,1140.00
2018-01-24T09:51:28.081Z,1120.00
2018-01-24T09:52:28.082Z,1320.00
2018-01-24T09:53:28.092Z,1232.00
2018-01-24T09:54:28.330Z,1216.00
2018-01-24T09:55:28.510Z,1460.00
2018-01-24T09:56:28.954Z,1444.00
2018-01-24T09:57:28.174Z,1508.00
2018-01-24T09:58:28.176Z,1776.00
2018-01-24T09:59:28.188Z,1952.00
2018-01-24T10:00:28.216Z,1940.00
2018-01-24T10:01:28.271Z,1996.00
2018-01-24T10:02:28.240Z,1732.00
2018-01-24T10:03:28.791Z,1664.00
2018-01-24T10:04:29.267Z,1696.00
2018-01-24T10:05:28.285Z,1780.00
2018-01-24T10:06:28.303Z,1644.00
2018-01-24T10:07:28.319Z,1640.00
2018-01-24T10:08:28.334Z,2040.00
2018-01-24T10:09:28.345Z,2184.00
2018-01-24T10:10:28.358Z,2016.00
2018-01-24T10:11:28.394Z,1916.00
2018-01-24T10:12:28.394Z,2068.00
2018-01-24T10:13:28.407Z,2424.00
2018-01-24T10:14:28.438Z,2584.00
2018-01-24T10:15:28.443Z,2452.00
2018-01-24T10:16:28.455Z,2556.00
2018-01-24T10:17:28.471Z,2620.00
2018-01-24T10:18:28.594Z,2752.00
2018-01-24T10:19:28.506Z,2676.00
2018-01-24T10:20:28.614Z,2484.00
2018-01-24T10:21:29.666Z,2268.00
2018-01-24T10:23:28.617Z,2568.00
2018-01-24T10:25:28.602Z,1992.00
2018-01-24T10:26:29.140Z,1940.00
2018-01-24T10:27:29.032Z,1752.00
2018-01-24T10:29:28.887Z,1856.00
2018-01-24T10:30:28.687Z,1980.00
2018-01-24T10:31:29.686Z,1884.00
2018-01-24T10:33:28.778Z,2216.00
2018-01-24T10:34:28.749Z,2572.00
2018-01-24T10:35:28.909Z,2592.00
2018-01-24T10:36:28.930Z,2412.00
2018-01-24T10:37:28.797Z,2544.00
2018-01-24T10:38:28.807Z,2600.00
2018-01-24T10:39:28.826Z,2368.00
2018-01-24T10:40:28.839Z,2480.00
2018-01-24T10:41:28.855Z,2364.00
2018-01-24T10:42:28.873Z,2672.00
2018-01-24T10:43:28.890Z,3268.00
2018-01-24T10:44:28.904Z,3176.00
2018-01-24T10:45:28.924Z,2908.00
2018-01-24T10:46:29.238Z,2824.00
2018-01-24T10:47:28.961Z,2604.00
2018-01-24T10:48:28.968Z,2896.00
2018-01-24T10:49:31.362Z,3004.00
2018-01-24T10:50:28.998Z,2892.00
2018-01-24T10:51:29.023Z,3084.00
2018-01-24T10:52:29.034Z,2908.00
2018-01-24T10:53:29.049Z,3156.00
2018-01-24T10:54:29.068Z,3436.00
2018-01-24T10:55:29.169Z,3508.00
2018-01-24T10:56:29.103Z,3628.00
2018-01-24T10:57:29.116Z,3748.00
2018-01-24T10:58:29.127Z,3764.00
2018-01-24T11:01:30.047Z,3764.00
2018-01-24T11:02:29.351Z,3636.00
2018-01-24T11:03:29.254Z,3648.00
2018-01-24T11:04:29.241Z,3668.00
2018-01-24T11:05:29.263Z,3604.00
2018-01-24T11:06:29.309Z,3428.00
2018-01-24T11:07:29.284Z,3052.00
2018-01-24T11:08:29.290Z,2636.00
2018-01-24T11:09:29.459Z,2096.00
2018-01-24T11:10:29.355Z,1608.00
2018-01-24T11:11:29.376Z,2084.00
2018-01-24T11:12:29.371Z,2016.00
2018-01-24T11:13:29.366Z,2840.00
2018-01-24T11:14:29.383Z,3116.00
2018-01-24T11:15:29.400Z,3312.00
2018-01-24T11:16:29.419Z,3312.00
2018-01-24T11:17:29.522Z,3456.00
2018-01-24T11:18:29.449Z,3444.00
2018-01-24T11:19:29.470Z,3560.00
2018-01-24T11:20:29.484Z,3584.00
2018-01-24T11:21:29.516Z,3624.00
2018-01-24T11:22:29.516Z,3652.00
2018-01-24T11:23:29.529Z,3680.00
2018-01-24T11:24:29.545Z,3672.00
2018-01-24T11:25:29.563Z,3644.00
2018-01-24T11:26:29.578Z,3652.00
2018-01-24T11:27:29.596Z,3660.00
2018-01-24T11:28:29.613Z,3624.00
2018-01-24T11:29:29.628Z,3712.00
2018-01-24T11:30:29.655Z,3712.00
2018-01-24T11:31:29.662Z,3768.00
2018-01-24T11:32:29.832Z,3776.00
2018-01-24T11:33:29.796Z,3756.00
2018-01-24T11:34:30.118Z,3576.00
2018-01-24T11:35:30.080Z,3408.00
2018-01-24T11:36:29.996Z,3356.00
2018-01-24T11:37:29.765Z,3488.00
2018-01-24T11:38:29.775Z,3628.00
2018-01-24T11:39:29.948Z,3440.00
2018-01-24T11:40:29.809Z,3508.00
2018-01-24T11:41:29.824Z,3144.00
2018-01-24T11:42:29.847Z,2904.00
2018-01-24T11:43:29.858Z,2696.00
2018-01-24T11:44:29.878Z,2592.00
2018-01-24T11:45:30.252Z,2608.00
2018-01-24T11:47:29.925Z,2456.00
2018-01-24T11:48:29.939Z,2548.00
2018-01-24T11:49:30.105Z,2548.00
2018-01-24T11:50:29.972Z,2684.00
2018-01-24T11:51:29.988Z,2260.00
2018-01-24T11:52:30.008Z,2384.00
2018-01-24T11:53:30.021Z,2424.00
2018-01-24T11:54:30.043Z,2184.00
2018-01-24T11:55:30.072Z,2116.00
2018-01-24T11:56:30.072Z,2356.00
2018-01-24T11:57:30.088Z,2048.00
2018-01-24T11:58:30.103Z,1904.00
2018-01-24T11:59:30.300Z,1516.00
2018-01-24T12:00:30.144Z,1584.00
2018-01-24T12:01:30.202Z,1516.00
2018-01-24T12:02:30.185Z,1576.00
2018-01-24T12:03:30.202Z,2116.00
2018-01-24T12:05:30.218Z,1828.00
2018-01-24T12:06:30.386Z,1628.00
2018-01-24T12:07:30.253Z,1560.00
2018-01-24T12:08:31.069Z,1568.00
2018-01-24T12:09:30.604Z,1548.00
2018-01-24T12:10:30.307Z,1480.00
2018-01-24T12:11:30.327Z,1324.00
2018-01-24T12:12:30.333Z,1256.00
2018-01-24T12:13:30.398Z,1236.00
2018-01-24T12:14:30.367Z,1276.00
2018-01-24T12:15:30.403Z,1444.00
2018-01-24T12:16:30.400Z,1488.00
2018-01-24T12:17:30.959Z,1556.00
2018-01-24T12:18:30.448Z,1576.00
2018-01-24T12:19:30.454Z,1696.00
2018-01-24T12:20:30.467Z,1708.00
2018-01-24T12:21:30.581Z,1592.00
2018-01-24T12:22:30.498Z,1364.00
2018-01-24T12:23:30.521Z,1212.00
2018-01-24T12:24:30.531Z,1376.00
2018-01-24T12:25:30.546Z,1508.00
2018-01-24T12:26:30.643Z,1568.00
2018-01-24T12:27:30.582Z,1688.00
2018-01-24T12:28:30.595Z,1428.00
2018-01-24T12:29:30.661Z,1240.00
2018-01-24T12:30:30.632Z,1056.00
2018-01-24T12:31:30.657Z,1000.00
2018-01-24T12:33:30.678Z,1092.00
2018-01-24T12:34:30.706Z,1272.00
2018-01-24T12:36:31.023Z,1312.00
2018-01-24T12:37:30.748Z,1420.00
2018-01-24T12:39:30.784Z,932.00
2018-01-24T12:40:30.869Z,932.00
2018-01-24T12:41:30.896Z,1028.00
2018-01-24T12:42:31.618Z,1160.00
2018-01-24T12:43:30.851Z,1020.00
2018-01-24T12:44:30.856Z,852.00
2018-01-24T12:45:30.880Z,796.00
2018-01-24T12:46:30.888Z,744.00
2018-01-24T12:47:31.268Z,788.00
2018-01-24T12:48:30.957Z,916.00
2018-01-24T12:49:30.937Z,808.00
2018-01-24T12:50:30.956Z,756.00
2018-01-24T12:52:30.987Z,812.00
2018-01-24T12:53:31.002Z,672.00
2018-01-24T12:54:31.029Z,700.00
2018-01-24T12:55:31.088Z,716.00
2018-01-24T12:56:31.060Z,684.00
2018-01-24T12:57:31.217Z,800.00
2018-01-24T12:58:31.087Z,748.00
2018-01-24T12:59:31.105Z,632.00
2018-01-24T13:00:31.118Z,696.00
2018-01-24T13:01:32.800Z,644.00
2018-01-24T13:02:33.806Z,668.00
2018-01-24T13:03:31.316Z,728.00
2018-01-24T13:04:31.194Z,736.00
2018-01-24T13:05:31.208Z,732.00
2018-01-24T13:06:31.217Z,696.00
2018-01-24T13:07:31.229Z,756.00
2018-01-24T13:08:31.246Z,716.00
2018-01-24T13:09:31.316Z,876.00
2018-01-24T13:10:31.284Z,844.00
2018-01-24T13:11:31.301Z,652.00
2018-01-24T13:12:31.312Z,612.00
2018-01-24T13:13:31.326Z,696.00
2018-01-24T13:14:31.343Z,692.00
2018-01-24T13:15:32.591Z,644.00
2018-01-24T13:16:33.565Z,648.00
2018-01-24T13:17:31.396Z,672.00
2018-01-24T13:18:31.406Z,596.00
2018-01-24T13:19:31.888Z,576.00
2018-01-24T13:20:31.444Z,524.00
2018-01-24T13:21:31.459Z,472.00
2018-01-24T13:22:31.471Z,468.00